Time;durP1;ratioP1;P1;durP2;ratioP2;P2;SDS_P1;SDS_P2;PMS_P1;PMS_P2;Temp;Humidity;BMP_temperature;BMP_pressure;BME280_temperature;BME280_humidity;BME280_pressure;Samples;Min_cycle;Max_cycle;Signal;HPM_P1;HPM_P2
2023/07/20 00:01:45;;;;;;;4.22;2.50;;;15.20;99.90;;;;;;5032984;28;20041;-66
2023/07/20 00:04:11;;;;;;;2.92;2.40;;;15.20;99.90;;;;;;5032441;28;20048;-66
2023/07/20 00:06:40;;;;;;;3.47;2.35;;;15.30;99.90;;;;;;5032849;28;20428;-66
2023/07/20 00:09:09;;;;;;;3.25;2.40;;;15.30;99.90;;;;;;5032779;28;20408;-66
2023/07/20 00:11:38;;;;;;;4.78;2.40;;;15.20;99.90;;;;;;5032821;28;20045;-66
2023/07/20 00:14:05;;;;;;;3.13;2.08;;;15.60;99.90;;;;;;5032812;28;20631;-66
2023/07/20 00:16:31;;;;;;;4.90;2.08;;;15.80;99.90;;;;;;5032725;28;20459;-66
2023/07/20 00:18:56;;;;;;;2.78;1.63;;;15.50;99.90;;;;;;5032815;28;20116;-66
2023/07/20 00:21:22;;;;;;;3.10;1.52;;;15.10;99.90;;;;;;5032741;28;20046;-66
2023/07/20 00:23:48;;;;;;;1.88;1.30;;;15.30;99.90;;;;;;5032714;28;20052;-66
2023/07/20 00:26:13;;;;;;;2.75;1.50;;;15.20;99.90;;;;;;5032650;28;20049;-66
2023/07/20 00:28:39;;;;;;;2.35;1.20;;;15.40;98.60;;;;;;5032298;28;20481;-66
2023/07/20 00:31:04;;;;;;;2.13;1.27;;;15.50;97.10;;;;;;5031107;28;20416;-66
2023/07/20 00:33:30;;;;;;;1.60;1.25;;;15.10;96.70;;;;;;5032519;28;20453;-66
2023/07/20 00:35:56;;;;;;;0.98;0.80;;;14.90;93.70;;;;;;5032604;28;20477;-66
2023/07/20 00:38:21;;;;;;;1.73;1.23;;;15.70;92.20;;;;;;5032325;28;20033;-66
2023/07/20 00:40:49;;;;;;;2.15;1.30;;;15.30;90.90;;;;;;5031030;28;20508;-66
2023/07/20 00:43:15;;;;;;;4.53;1.17;;;14.90;91.60;;;;;;5032522;28;20049;-66
2023/07/20 00:45:41;;;;;;;1.23;1.02;;;15.50;92.10;;;;;;5032494;28;20539;-66
2023/07/20 00:48:08;;;;;;;0.80;0.70;;;15.20;92.90;;;;;;5034673;28;20073;-66
2023/07/20 00:50:34;;;;;;;1.65;0.98;;;14.80;80.50;;;;;;5036216;28;20420;-66
2023/07/20 00:53:02;;;;;;;0.73;0.68;;;14.70;74.50;;;;;;5036263;28;20404;-66
2023/07/20 00:55:28;;;;;;;0.90;0.80;;;14.80;55.90;;;;;;5036145;28;20034;-66
2023/07/20 00:57:54;;;;;;;0.70;0.70;;;15.00;50.30;;;;;;5036074;28;20087;-66
2023/07/20 01:00:20;;;;;;;1.33;1.10;;;15.00;50.80;;;;;;5035978;28;20409;-66
2023/07/20 01:02:46;;;;;;;0.77;0.70;;;14.70;52.70;;;;;;5034461;28;20041;-66
2023/07/20 01:05:13;;;;;;;1.67;0.77;;;15.00;59.50;;;;;;5035549;28;20053;-66
2023/07/20 01:07:48;;;;;;;1.23;0.80;;;14.50;91.90;;;;;;5035851;28;20040;-66
2023/07/20 01:10:23;;;;;;;0.95;0.73;;;15.00;91.60;;;;;;5035514;28;20049;-66
2023/07/20 01:12:52;;;;;;;0.90;0.70;;;14.70;91.20;;;;;;5035852;28;20461;-66
2023/07/20 01:15:18;;;;;;;1.08;0.73;;;14.40;92.80;;;;;;5035737;28;20041;-66
2023/07/20 01:17:44;;;;;;;0.73;0.65;;;14.50;92.90;;;;;;5035818;28;20060;-66
2023/07/20 01:20:14;;;;;;;1.38;0.85;;;14.50;93.40;;;;;;5035625;28;20037;-66
2023/07/20 01:23:01;;;;;;;1.52;0.75;;;14.90;93.30;;;;;;5035709;28;20459;-66
2023/07/20 01:25:45;;;;;;;3.72;0.95;;;14.30;94.20;;;;;;5034373;28;20102;-66
2023/07/20 01:28:31;;;;;;;1.05;0.85;;;14.60;99.30;;;;;;5035464;28;20042;-66
2023/07/20 01:31:13;;;;;;;1.50;0.90;;;14.40;99.40;;;;;;5035468;28;20037;-66
2023/07/20 01:33:41;;;;;;;0.98;0.85;;;14.20;99.90;;;;;;5049671;28;20064;-66
2023/07/20 01:36:08;;;;;;;1.55;0.98;;;14.20;99.90;;;;;;5035378;28;20370;-67
2023/07/20 01:38:34;;;;;;;1.73;1.10;;;14.30;99.90;;;;;;5035402;28;20120;-66
2023/07/20 01:41:00;;;;;;;1.15;0.80;;;14.20;99.90;;;;;;5035373;28;20042;-66
2023/07/20 01:43:25;;;;;;;1.25;1.00;;;14.90;99.90;;;;;;5035270;28;20515;-66
2023/07/20 01:45:51;;;;;;;1.35;0.98;;;14.40;99.90;;;;;;5035186;28;20504;-66
2023/07/20 01:48:17;;;;;;;2.10;1.30;;;;;;;;;;5035056;28;20121;-66
2023/07/20 01:50:43;;;;;;;1.85;1.02;;;;;;;;;;5034928;28;20045;-66
2023/07/20 01:53:09;;;;;;;2.65;1.33;;;;;;;;;;5035054;28;20045;-66
2023/07/20 01:55:35;;;;;;;2.55;1.20;;;;;;;;;;5035317;28;20049;-66
2023/07/20 01:58:01;;;;;;;1.52;1.15;;;;;;;;;;5034567;28;20490;-66
2023/07/20 02:00:27;;;;;;;1.40;1.10;;;;;;;;;;5034971;28;20116;-66
2023/07/20 02:02:53;;;;;;;2.72;1.17;;;13.80;98.30;;;;;;5034976;28;20083;-66
2023/07/20 02:05:19;;;;;;;1.45;1.23;;;14.10;99.90;;;;;;5034506;28;20104;-66
2023/07/20 02:07:44;;;;;;;1.83;1.35;;;13.70;99.90;;;;;;5034688;28;20050;-66
2023/07/20 02:10:10;;;;;;;1.92;1.45;;;13.70;99.90;;;;;;5034756;28;20095;-66
2023/07/20 02:12:36;;;;;;;3.50;1.50;;;13.70;99.90;;;;;;5034400;28;20474;-66
2023/07/20 02:15:02;;;;;;;2.53;1.48;;;13.70;99.90;;;;;;5033226;28;20048;-66
2023/07/20 02:17:28;;;;;;;2.47;1.70;;;13.40;99.90;;;;;;5034622;28;20047;-67
2023/07/20 02:19:54;;;;;;;2.17;1.45;;;13.60;99.90;;;;;;5034561;28;20438;-66
2023/07/20 02:22:21;;;;;;;2.58;1.63;;;14.50;99.90;;;;;;5034556;28;20034;-66
2023/07/20 02:24:47;;;;;;;2.88;1.80;;;13.30;99.90;;;;;;5034257;28;20073;-66
2023/07/20 02:27:12;;;;;;;4.57;2.10;;;13.40;99.90;;;;;;5034446;28;20446;-66
2023/07/20 02:29:38;;;;;;;2.35;1.88;;;13.50;99.90;;;;;;5032715;28;20077;-66
2023/07/20 02:32:04;;;;;;;3.63;2.15;;;13.40;99.90;;;;;;5034335;28;20128;-66
2023/07/20 02:34:30;;;;;;;3.25;2.20;;;13.40;99.90;;;;;;5034282;28;20042;-66
2023/07/20 02:36:58;;;;;;;4.40;2.30;;;13.40;99.90;;;;;;5032742;28;20489;-66
2023/07/20 02:39:24;;;;;;;5.60;2.10;;;13.30;99.90;;;;;;5033898;28;20053;-66
2023/07/20 02:41:50;;;;;;;2.92;2.00;;;14.00;99.90;;;;;;5034166;28;20047;-66
2023/07/20 02:44:15;;;;;;;4.72;2.38;;;13.20;99.90;;;;;;5033801;28;20091;-66
2023/07/20 02:46:41;;;;;;;3.50;2.50;;;13.20;99.90;;;;;;5033779;28;20049;-66
2023/07/20 02:49:07;;;;;;;4.18;2.30;;;13.20;99.90;;;;;;5033941;28;20090;-65
2023/07/20 02:51:32;;;;;;;2.55;2.10;;;13.30;99.90;;;;;;5033939;28;20048;-66
2023/07/20 02:53:58;;;;;;;3.58;2.13;;;13.30;99.90;;;;;;5033952;28;20040;-66
2023/07/20 02:56:24;;;;;;;3.00;2.38;;;13.30;99.90;;;;;;5033951;28;20045;-66
2023/07/20 02:58:50;;;;;;;4.57;2.63;;;13.30;99.90;;;;;;5033837;28;20067;-66
2023/07/20 03:01:15;;;;;;;3.25;2.45;;;13.30;99.90;;;;;;5033481;28;20053;-66
2023/07/20 03:03:45;;;;;;;4.25;2.50;;;13.40;99.90;;;;;;5033549;28;20033;-68
2023/07/20 03:06:11;;;;;;;3.17;2.30;;;13.10;99.90;;;;;;5033708;28;20512;-66
2023/07/20 03:08:37;;;;;;;4.97;2.72;;;13.10;99.90;;;;;;5033543;28;20041;-66
2023/07/20 03:11:02;;;;;;;5.00;2.83;;;13.50;99.90;;;;;;5031814;28;20407;-66
2023/07/20 03:13:28;;;;;;;3.10;2.25;;;13.60;99.90;;;;;;5033551;28;20116;-66
2023/07/20 03:15:53;;;;;;;5.45;2.72;;;13.10;99.90;;;;;;5032334;28;20481;-66
2023/07/20 03:18:19;;;;;;;4.38;2.58;;;13.10;99.90;;;;;;5033459;28;20049;-66
2023/07/20 03:20:46;;;;;;;3.25;2.45;;;;;;;;;;5032149;28;20052;-66
2023/07/20 03:23:12;;;;;;;4.82;2.80;;;;;;;;;;5033402;28;20042;-66
2023/07/20 03:25:38;;;;;;;4.38;2.90;;;;;;;;;;5033373;28;20079;-66
2023/07/20 03:28:04;;;;;;;3.97;2.67;;;;;;;;;;5033047;28;20034;-66
2023/07/20 03:30:30;;;;;;;4.65;2.67;;;;;;;;;;5033276;28;20055;-66
2023/07/20 03:32:56;;;;;;;3.50;2.63;;;;;;;;;;5033280;28;20120;-66
2023/07/20 03:35:23;;;;;;;4.47;2.95;;;;;;;;;;5032954;28;20561;-66
2023/07/20 03:37:49;;;;;;;3.53;2.58;;;;;;;;;;5033189;28;20045;-66
2023/07/20 03:40:16;;;;;;;4.13;2.53;;;;;;;;;;5032843;28;20048;-65
2023/07/20 03:42:42;;;;;;;3.88;2.92;;;;;;;;;;5033221;28;20442;-66
2023/07/20 03:45:08;;;;;;;3.42;2.45;;;;;;;;;;5031779;28;20048;-67
2023/07/20 03:47:34;;;;;;;3.58;2.55;;;;;;;;;;5032667;28;20056;-66
2023/07/20 03:50:00;;;;;;;3.53;2.58;;;;;;;;;;5033027;28;20041;-66
2023/07/20 03:52:26;;;;;;;4.13;2.83;;;;;;;;;;5032933;28;20037;-66
2023/07/20 03:54:52;;;;;;;3.42;2.80;;;;;;;;;;5032696;28;20510;-66
2023/07/20 03:57:18;;;;;;;3.58;2.58;;;;;;;;;;5032566;28;20041;-66
2023/07/20 03:59:49;;;;;;;5.90;2.47;;;;;;;;;;5032897;28;20106;-66
2023/07/20 04:02:15;;;;;;;3.65;2.85;;;;;;;;;;5031362;28;20045;-66
2023/07/20 04:04:41;;;;;;;3.63;2.55;;;;;;;;;;5032629;28;20057;-66
2023/07/20 04:07:07;;;;;;;5.32;2.67;;;;;;;;;;5032812;28;20053;-66
2023/07/20 04:09:33;;;;;;;3.63;2.83;;;;;;;;;;5031548;28;20043;-67
2023/07/20 04:12:00;;;;;;;4.65;2.83;;;;;;;;;;5032756;28;20037;-68
2023/07/20 04:14:26;;;;;;;4.28;2.55;;;;;;;;;;5032721;28;20037;-66
2023/07/20 04:16:52;;;;;;;3.70;2.50;;;;;;;;;;5032538;28;20038;-70
2023/07/20 04:19:18;;;;;;;3.95;3.00;;;;;;;;;;5032369;28;20404;-66
2023/07/20 04:21:44;;;;;;;5.38;2.63;;;;;;;;;;5031452;28;20144;-66
2023/07/20 04:24:10;;;;;;;5.57;3.00;;;;;;;;;;5036760;28;20076;-67
2023/07/20 04:26:36;;;;;;;5.05;2.78;;;;;;;;;;5036654;28;20069;-65
2023/07/20 04:29:03;;;;;;;4.18;2.50;;;;;;;;;;5036224;28;20037;-69
2023/07/20 04:31:32;;;;;;;3.25;2.42;;;;;;;;;;5036195;28;20053;-66
2023/07/20 04:34:07;;;;;;;4.20;2.45;;;;;;;;;;5036507;28;20045;-65
2023/07/20 04:36:33;;;;;;;2.92;2.10;;;;;;;;;;5035011;28;20041;-66
2023/07/20 04:38:59;;;;;;;5.45;2.90;;;;;;;;;;5036552;28;20051;-66
2023/07/20 04:41:25;;;;;;;3.85;2.67;;;;;;;;;;5036425;28;20565;-66
2023/07/20 04:43:51;;;;;;;4.30;2.17;;;;;;;;;;5036150;28;20041;-65
2023/07/20 04:46:18;;;;;;;4.40;2.53;;;;;;;;;;5036272;28;20127;-66
2023/07/20 04:48:44;;;;;;;4.72;2.03;;;;;;;;;;5035886;28;20085;-70
2023/07/20 04:51:11;;;;;;;2.70;2.05;;;;;;;;;;5036248;28;20042;-66
2023/07/20 04:53:37;;;;;;;2.38;1.70;;;;;;;;;;5036258;28;20041;-66
2023/07/20 04:56:03;;;;;;;2.72;2.13;;;;;;;;;;5036178;28;20079;-66
2023/07/20 04:58:29;;;;;;;4.10;1.90;;;;;;;;;;5035868;28;20038;-66
2023/07/20 05:00:55;;;;;;;2.65;2.08;;;;;;;;;;5035734;28;20133;-66
2023/07/20 05:03:21;;;;;;;3.95;2.28;;;;;;;;;;5036050;28;20124;-66
2023/07/20 05:05:50;;;;;;;3.17;2.00;;;;;;;;;;5035603;28;20056;-67
2023/07/20 05:08:16;;;;;;;2.45;1.90;;;;;;;;;;5035837;28;20053;-66
2023/07/20 05:10:42;;;;;;;2.75;1.80;;;;;;;;;;5035885;28;20120;-66
2023/07/20 05:13:08;;;;;;;3.10;2.03;;;;;;;;;;5034612;28;20095;-67
2023/07/20 05:15:34;;;;;;;3.03;2.10;;;;;;;;;;5035517;28;20397;-66
2023/07/20 05:18:01;;;;;;;2.40;2.00;;;;;;;;;;5035748;28;20397;-66
2023/07/20 05:20:27;;;;;;;3.40;2.10;;;;;;;;;;5035373;28;20048;-66
2023/07/20 05:22:53;;;;;;;2.75;2.20;;;;;;;;;;5035708;28;20448;-66
2023/07/20 05:25:19;;;;;;;3.00;1.90;;;;;;;;;;5035663;28;20042;-66
2023/07/20 05:27:46;;;;;;;2.38;1.80;;;;;;;;;;5035577;28;20053;-66
2023/07/20 05:30:12;;;;;;;2.88;1.98;;;;;;;;;;5035322;28;20045;-66
2023/07/20 05:32:37;;;;;;;4.07;1.90;;;13.90;99.90;;;;;;5035047;28;20041;-66
2023/07/20 05:35:03;;;;;;;3.90;1.63;;;13.80;99.90;;;;;;5035059;28;20042;-66
2023/07/20 05:37:29;;;;;;;2.13;1.63;;;14.10;99.90;;;;;;5035216;28;20037;-66
2023/07/20 05:39:55;;;;;;;1.67;1.25;;;14.00;99.90;;;;;;5035350;28;20159;-66
2023/07/20 05:42:20;;;;;;;2.40;1.65;;;14.20;99.90;;;;;;5035109;28;20397;-66
2023/07/20 05:44:48;;;;;;;3.70;1.67;;;14.70;99.90;;;;;;5034058;28;20040;-65
2023/07/20 05:47:13;;;;;;;1.50;1.40;;;14.40;99.90;;;;;;5035252;28;20406;-66
2023/07/20 05:49:39;;;;;;;2.03;1.40;;;14.60;99.90;;;;;;5035107;28;20041;-66
2023/07/20 05:52:05;;;;;;;1.70;1.35;;;14.90;99.90;;;;;;5035151;28;20399;-70
2023/07/20 05:54:30;;;;;;;2.22;1.30;;;14.80;99.90;;;;;;5034873;28;20163;-65
2023/07/20 05:56:56;;;;;;;1.67;1.17;;;14.80;99.70;;;;;;5035014;28;20037;-68
2023/07/20 05:59:23;;;;;;;1.50;1.40;;;14.80;98.00;;;;;;5035150;28;20408;-66
2023/07/20 06:01:49;;;;;;;1.95;1.20;;;15.10;96.40;;;;;;5034754;28;20378;-66
2023/07/20 06:04:15;;;;;;;1.98;1.48;;;14.90;94.80;;;;;;5034474;28;20064;-66
2023/07/20 06:06:41;;;;;;;2.42;1.15;;;15.50;94.20;;;;;;5034579;28;20041;-66
2023/07/20 06:09:09;;;;;;;2.58;1.50;;;15.30;94.00;;;;;;5034770;28;20033;-67
2023/07/20 06:11:36;;;;;;;2.60;1.15;;;15.20;92.60;;;;;;5034686;28;20447;-67
2023/07/20 06:14:01;;;;;;;1.75;1.20;;;15.40;90.00;;;;;;5034792;28;20409;-66
2023/07/20 06:16:27;;;;;;;4.30;1.38;;;15.40;90.00;;;;;;5033441;28;20037;-66
2023/07/20 06:18:52;;;;;;;1.85;1.00;;;15.50;90.00;;;;;;5034635;28;20041;-66
2023/07/20 06:21:18;;;;;;;1.75;1.25;;;15.20;87.50;;;;;;5034592;28;20440;-66
2023/07/20 06:23:44;;;;;;;1.50;1.10;;;16.10;88.40;;;;;;5033309;28;20072;-66
2023/07/20 06:26:09;;;;;;;2.30;1.50;;;15.20;87.90;;;;;;5034568;28;20049;-66
2023/07/20 06:28:36;;;;;;;1.90;1.23;;;;;;;;;;5034128;28;20041;-66
2023/07/20 06:31:02;;;;;;;2.17;1.17;;;15.90;99.80;;;;;;5034130;28;20045;-66
2023/07/20 06:33:28;;;;;;;2.08;1.15;;;15.80;84.30;;;;;;5034321;28;20041;-66
2023/07/20 06:35:53;;;;;;;1.33;1.00;;;16.60;74.10;;;;;;5034410;28;20099;-66
2023/07/20 06:38:19;;;;;;;1.33;1.08;;;15.80;72.30;;;;;;5034776;28;20037;-62
2023/07/20 06:40:48;;;;;;;3.88;1.30;;;15.80;3.30;;;;;;5034251;28;20091;-63
2023/07/20 06:43:14;;;;;;;3.05;1.20;;;16.00;1.00;;;;;;5034225;28;20045;-63
2023/07/20 06:45:40;;;;;;;3.58;1.38;;;16.10;99.90;;;;;;5033347;28;20519;-63
2023/07/20 06:48:06;;;;;;;2.33;0.95;;;16.20;99.90;;;;;;5033763;28;20489;-68
2023/07/20 06:50:31;;;;;;;3.60;1.20;;;16.30;99.90;;;;;;5016144;28;20091;-68
2023/07/20 06:52:58;;;;;;;3.22;1.10;;;16.50;4.90;;;;;;5032537;28;20493;-68
2023/07/20 06:55:24;;;;;;;5.18;1.10;;;16.60;99.90;;;;;;5033684;28;20045;-69
2023/07/20 06:57:50;;;;;;;3.38;1.20;;;16.70;99.80;;;;;;5033667;28;20041;-67
2023/07/20 07:00:16;;;;;;;3.38;1.13;;;16.80;99.90;;;;;;5032610;28;20072;-68
2023/07/20 07:02:42;;;;;;;1.60;0.98;;;16.90;27.10;;;;;;5032642;28;20071;-67
2023/07/20 07:05:08;;;;;;;1.77;0.95;;;17.30;99.90;;;;;;5033514;28;20057;-67
2023/07/20 07:07:33;;;;;;;2.38;1.02;;;16.90;99.90;;;;;;5033740;28;20042;-67
2023/07/20 07:09:59;;;;;;;3.83;1.00;;;17.50;81.90;;;;;;5033680;28;20520;-67
2023/07/20 07:12:25;;;;;;;0.90;0.77;;;17.20;99.90;;;;;;5033657;28;20033;-68
2023/07/20 07:14:51;;;;;;;2.97;0.60;;;17.20;99.90;;;;;;5033753;28;20029;-67
2023/07/20 07:17:16;;;;;;;1.95;0.80;;;17.20;95.20;;;;;;5016139;28;20065;-68
2023/07/20 07:19:42;;;;;;;1.48;0.77;;;17.40;1.00;;;;;;5033651;28;20041;-68
2023/07/20 07:22:08;;;;;;;2.53;1.23;;;17.40;99.90;;;;;;5033502;28;20039;-69
2023/07/20 07:24:34;;;;;;;1.60;0.73;;;17.70;99.90;;;;;;5032259;28;20424;-68
2023/07/20 07:27:03;;;;;;;1.67;0.73;;;17.50;1.00;;;;;;5033264;28;20125;-68
2023/07/20 07:29:29;;;;;;;1.75;0.90;;;17.70;1.00;;;;;;5033064;28;20053;-67
2023/07/20 07:31:55;;;;;;;1.48;0.80;;;18.00;1.00;;;;;;5032997;28;20121;-67
2023/07/20 07:34:21;;;;;;;2.10;0.68;;;17.80;1.00;;;;;;5033374;28;20045;-68
2023/07/20 07:36:47;;;;;;;1.50;0.77;;;17.70;1.00;;;;;;5033324;28;20069;-68
2023/07/20 07:39:12;;;;;;;6.57;1.17;;;18.60;99.90;;;;;;5033192;28;20048;-68
2023/07/20 07:41:38;;;;;;;1.23;0.77;;;18.00;99.90;;;;;;5033243;28;20045;-67
2023/07/20 07:44:04;;;;;;;2.75;0.90;;;18.00;99.90;;;;;;5033156;28;20124;-68
2023/07/20 07:46:29;;;;;;;1.85;1.02;;;18.20;99.90;;;;;;5033010;28;20033;-68
2023/07/20 07:48:55;;;;;;;2.25;0.95;;;18.40;99.90;;;;;;5032882;28;20073;-68
2023/07/20 07:51:20;;;;;;;3.03;1.00;;;18.10;99.90;;;;;;5033046;28;20436;-68
2023/07/20 07:53:46;;;;;;;2.38;0.90;;;18.50;99.90;;;;;;5033072;28;20065;-67
2023/07/20 07:56:12;;;;;;;1.83;0.77;;;18.70;99.90;;;;;;5032785;28;20553;-67
2023/07/20 07:58:38;;;;;;;1.38;0.70;;;;;;;;;;5032774;28;20059;-68
2023/07/20 08:01:04;;;;;;;2.75;0.75;;;18.50;99.90;;;;;;5032962;28;20037;-67
2023/07/20 08:03:30;;;;;;;3.20;1.00;;;18.50;99.90;;;;;;5032914;28;20044;-68
2023/07/20 08:05:55;;;;;;;6.25;1.40;;;18.30;99.90;;;;;;5031308;28;20053;-68
2023/07/20 08:08:22;;;;;;;3.65;0.93;;;18.20;99.90;;;;;;5014968;28;20120;-68
2023/07/20 08:10:48;;;;;;;3.95;0.80;;;18.70;99.90;;;;;;5032888;28;20129;-68
2023/07/20 08:13:14;;;;;;;2.05;1.17;;;18.60;99.90;;;;;;5032873;28;20115;-68
2023/07/20 08:15:46;;;;;;;3.33;0.93;;;18.80;99.90;;;;;;5032851;28;20041;-68
2023/07/20 08:18:11;;;;;;;1.17;0.70;;;18.80;99.90;;;;;;5032853;28;20041;-68
2023/07/20 08:20:37;;;;;;;1.88;0.80;;;19.20;99.90;;;;;;5032877;28;20042;-69
2023/07/20 08:23:02;;;;;;;1.55;0.98;;;19.20;95.30;;;;;;5032825;28;20045;-68
2023/07/20 08:25:28;;;;;;;3.85;0.90;;;18.90;93.50;;;;;;5031244;28;20091;-68
2023/07/20 08:27:53;;;;;;;1.60;0.88;;;18.90;94.10;;;;;;5031201;28;20128;-68
2023/07/20 08:30:23;;;;;;;3.63;0.95;;;19.20;88.60;;;;;;5032745;28;20118;-68
2023/07/20 08:32:48;;;;;;;2.88;1.08;;;18.90;83.20;;;;;;5031186;28;20041;-68
2023/07/20 08:35:15;;;;;;;3.63;1.02;;;18.60;66.30;;;;;;5032709;28;20048;-68
2023/07/20 08:37:41;;;;;;;2.10;0.80;;;18.70;69.70;;;;;;5031493;28;20045;-68
2023/07/20 08:40:08;;;;;;;1.70;0.55;;;18.80;70.90;;;;;;5032447;28;20049;-68
2023/07/20 08:42:34;;;;;;;1.40;0.68;;;18.90;70.30;;;;;;5031092;28;20049;-69
2023/07/20 08:45:00;;;;;;;3.08;1.00;;;19.00;71.00;;;;;;5031126;28;20507;-67
2023/07/20 08:47:26;;;;;;;1.17;0.70;;;18.90;66.90;;;;;;5031416;28;20049;-69
2023/07/20 08:49:54;;;;;;;1.27;0.85;;;18.80;60.20;;;;;;5014561;28;20482;-68
2023/07/20 08:52:19;;;;;;;4.68;0.77;;;18.90;58.90;;;;;;5032564;28;20042;-71
2023/07/20 08:54:45;;;;;;;2.63;0.80;;;19.20;58.00;;;;;;5032502;28;20121;-68
2023/07/20 08:57:14;;;;;;;1.63;0.80;;;19.50;59.50;;;;;;5030920;28;20048;-68
2023/07/20 08:59:40;;;;;;;2.42;1.13;;;19.50;59.50;;;;;;5032268;28;20041;-68
2023/07/20 09:02:12;;;;;;;3.22;0.90;;;19.60;54.20;;;;;;5032533;28;20045;-68
2023/07/20 09:04:38;;;;;;;1.63;0.57;;;19.60;44.70;;;;;;5030776;28;20053;-69
2023/07/20 09:07:03;;;;;;;2.97;1.10;;;19.80;47.20;;;;;;5030850;28;20107;-69
2023/07/20 09:09:29;;;;;;;1.75;0.77;;;19.70;38.20;;;;;;5033479;28;20050;-68
2023/07/20 09:11:54;;;;;;;1.75;0.88;;;19.70;40.70;;;;;;5036027;28;20033;-68
2023/07/20 09:14:23;;;;;;;2.30;0.93;;;20.10;52.90;;;;;;5035673;28;20163;-68
2023/07/20 09:16:50;;;;;;;2.80;0.90;;;19.70;27.90;;;;;;5035826;28;20042;-68
2023/07/20 09:19:17;;;;;;;3.25;1.00;;;19.70;27.10;;;;;;5035778;28;20172;-68
2023/07/20 09:21:47;;;;;;;3.35;0.90;;;19.70;15.40;;;;;;5035744;28;20067;-68
2023/07/20 09:24:13;;;;;;;1.23;0.73;;;19.60;16.70;;;;;;5034472;28;20120;-69
2023/07/20 09:26:43;;;;;;;1.15;0.70;;;19.50;15.50;;;;;;5035433;28;20517;-68
2023/07/20 09:29:11;;;;;;;1.92;0.80;;;19.50;14.20;;;;;;5035305;28;20046;-69
2023/07/20 09:31:39;;;;;;;2.45;0.75;;;19.30;15.50;;;;;;5035676;28;20038;-69
2023/07/20 09:34:05;;;;;;;1.75;0.80;;;19.50;99.90;;;;;;5034269;28;20049;-69
2023/07/20 09:36:34;;;;;;;2.13;0.95;;;19.50;99.90;;;;;;5035603;28;20038;-69
2023/07/20 09:39:01;;;;;;;3.50;1.15;;;20.00;99.90;;;;;;5035526;28;20440;-70
2023/07/20 09:41:26;;;;;;;3.78;1.13;;;19.90;99.90;;;;;;5035412;28;20095;-69
2023/07/20 09:43:53;;;;;;;1.77;1.02;;;19.90;99.90;;;;;;5035426;28;20041;-69
2023/07/20 09:46:20;;;;;;;2.22;0.90;;;20.20;99.90;;;;;;5017509;28;20124;-68
2023/07/20 09:48:53;;;;;;;2.22;1.13;;;19.90;99.90;;;;;;5035129;28;20045;-67
2023/07/20 09:51:23;;;;;;;3.80;1.30;;;19.90;99.90;;;;;;5034006;28;20124;-68
2023/07/20 09:53:52;;;;;;;2.58;0.98;;;20.30;99.90;;;;;;5035231;28;20444;-68
2023/07/20 09:56:22;;;;;;;2.05;0.88;;;20.30;99.90;;;;;;5035496;28;20044;-67
2023/07/20 09:58:48;;;;;;;1.42;0.80;;;19.90;99.90;;;;;;5033860;28;20045;-67
2023/07/20 10:01:17;;;;;;;1.08;0.77;;;20.40;99.90;;;;;;5034653;28;20132;-68
2023/07/20 10:03:46;;;;;;;4.20;1.10;;;20.50;99.90;;;;;;5034707;28;20128;-68
2023/07/20 10:06:16;;;;;;;1.20;0.70;;;20.60;99.90;;;;;;5034940;28;20569;-68
2023/07/20 10:08:43;;;;;;;1.83;1.00;;;;;;;;;;5034915;28;20048;-68
2023/07/20 10:11:12;;;;;;;2.15;1.00;;;20.90;13.00;;;;;;5034864;28;20120;-68
2023/07/20 10:13:39;;;;;;;3.55;1.00;;;20.80;22.20;;;;;;5034606;28;20048;-68
2023/07/20 10:16:11;;;;;;;3.88;1.33;;;20.60;19.50;;;;;;5033444;28;20048;-68
2023/07/20 10:19:11;;;;;;;4.45;1.10;;;20.60;15.80;;;;;;5033216;28;20053;-68
2023/07/20 10:21:47;;;;;;;2.17;0.90;;;20.20;15.80;;;;;;5034371;28;20033;-68
2023/07/20 10:24:14;;;;;;;3.60;1.08;;;20.50;18.70;;;;;;5033353;28;20073;-68
2023/07/20 10:26:40;;;;;;;1.73;1.15;;;20.20;21.10;;;;;;5034508;28;20091;-68
2023/07/20 10:29:06;;;;;;;3.85;1.17;;;20.30;21.30;;;;;;5033058;28;20041;-67
2023/07/20 10:31:33;;;;;;;2.20;0.90;;;20.50;23.60;;;;;;5034476;28;20049;-67
2023/07/20 10:33:59;;;;;;;1.77;1.10;;;20.60;23.70;;;;;;5034386;28;20098;-68
2023/07/20 10:36:29;;;;;;;2.30;1.20;;;20.60;24.10;;;;;;5034399;28;20049;-69
2023/07/20 10:38:57;;;;;;;2.28;1.15;;;20.60;24.80;;;;;;5034108;28;20052;-68
2023/07/20 10:41:39;;;;;;;3.03;1.10;;;21.20;20.40;;;;;;5033968;28;20052;-68
2023/07/20 10:44:07;;;;;;;3.92;1.30;;;20.60;18.20;;;;;;5034194;28;20422;-68
2023/07/20 10:46:38;;;;;;;1.08;0.68;;;20.60;18.50;;;;;;5034177;28;20154;-65
2023/07/20 10:49:05;;;;;;;3.67;0.70;;;20.60;16.20;;;;;;5033665;28;20049;-67
2023/07/20 10:51:47;;;;;;;2.15;0.90;;;21.30;17.50;;;;;;5033849;28;20052;-68
2023/07/20 10:54:16;;;;;;;2.00;0.88;;;20.40;16.30;;;;;;5032495;28;20116;-73
2023/07/20 10:56:42;;;;;;;1.25;0.55;;;20.30;13.30;;;;;;5015984;28;20038;-67
2023/07/20 10:59:23;;;;;;;1.88;1.00;;;20.30;14.00;;;;;;5033843;28;20049;-67
2023/07/20 11:01:51;;;;;;;;;;;20.20;10.70;;;;;;5034030;28;20041;-67
2023/07/20 11:04:20;;;;;;;3.38;1.00;;;20.20;8.80;;;;;;5032190;28;19974;-67
2023/07/20 11:06:54;;;;;;;5.15;1.00;;;20.40;13.50;;;;;;5033816;28;20099;-67
2023/07/20 11:09:25;;;;;;;5.22;0.90;;;21.00;13.20;;;;;;5033792;28;20034;-67
2023/07/20 11:12:18;;;;;;;1.92;0.95;;;20.60;12.70;;;;;;5033496;28;20045;-67
2023/07/20 11:14:54;;;;;;;2.88;0.98;;;20.70;10.00;;;;;;5032453;28;20393;-66
2023/07/20 11:17:22;;;;;;;2.55;1.02;;;20.80;10.60;;;;;;5033580;28;20049;-67
2023/07/20 11:19:55;;;;;;;1.67;0.60;;;20.90;11.80;;;;;;5033615;28;20440;-67
2023/07/20 11:22:21;;;;;;;2.10;0.73;;;20.90;12.50;;;;;;5033593;28;20041;-67
2023/07/20 11:24:49;;;;;;;4.43;1.13;;;20.80;9.90;;;;;;5033233;28;20049;-67
2023/07/20 11:27:14;;;;;;;3.22;0.90;;;20.70;9.70;;;;;;5033467;28;20053;-67
2023/07/20 11:29:40;;;;;;;1.83;0.98;;;20.70;9.50;;;;;;5033436;28;20037;-67
2023/07/20 11:32:06;;;;;;;3.65;0.98;;;20.60;8.60;;;;;;5033017;28;20038;-67
2023/07/20 11:34:33;;;;;;;2.13;0.88;;;20.60;8.50;;;;;;5033404;28;20107;-66
2023/07/20 11:36:59;;;;;;;1.63;0.95;;;20.50;8.40;;;;;;5033041;28;20077;-66
2023/07/20 11:39:25;;;;;;;0.93;0.52;;;20.40;8.20;;;;;;5033243;28;20460;-67
2023/07/20 11:42:00;;;;;;;1.45;0.80;;;20.60;8.10;;;;;;5033254;28;20440;-67
2023/07/20 11:44:29;;;;;;;2.35;0.88;;;20.80;7.60;;;;;;5031615;28;20037;-67
2023/07/20 11:47:04;;;;;;;1.40;0.70;;;20.90;6.30;;;;;;5033182;28;20401;-66
2023/07/20 11:49:30;;;;;;;1.95;0.88;;;19.90;6.80;;;;;;5033042;28;20042;-67
2023/07/20 11:51:57;;;;;;;1.90;0.90;;;19.90;7.30;;;;;;5033072;28;20033;-68
2023/07/20 11:54:24;;;;;;;1.15;0.60;;;19.80;5.60;;;;;;5033132;28;20393;-66
2023/07/20 11:56:55;;;;;;;4.20;0.93;;;19.70;5.00;;;;;;5031545;28;20437;-67
2023/07/20 11:59:20;;;;;;;3.13;0.88;;;19.70;2.50;;;;;;5033056;28;20041;-67
2023/07/20 12:01:46;;;;;;;0.52;0.40;;;19.70;5.40;;;;;;5032630;28;20041;-63
2023/07/20 12:04:11;;;;;;;6.10;1.35;;;19.60;4.70;;;;;;5032743;28;20057;-63
2023/07/20 12:06:37;;;;;;;1.00;0.50;;;19.60;3.70;;;;;;5033019;28;20072;-63
2023/07/20 12:09:03;;;;;;;2.50;0.93;;;19.80;3.20;;;;;;5032600;28;20042;-63
2023/07/20 12:11:35;;;;;;;3.65;0.85;;;19.50;1.90;;;;;;5032894;28;20481;-63
2023/07/20 12:14:02;;;;;;;1.33;0.70;;;19.50;2.40;;;;;;5032878;28;20034;-63
2023/07/20 12:16:29;;;;;;;1.83;0.60;;;19.60;2.20;;;;;;5032849;28;20037;-63
2023/07/20 12:19:04;;;;;;;1.38;0.70;;;19.60;1.00;;;;;;5032823;28;20128;-63
2023/07/20 12:21:31;;;;;;;1.08;0.60;;;20.40;12.10;;;;;;5032835;28;20053;-63
2023/07/20 12:23:58;;;;;;;2.97;0.85;;;19.70;1.00;;;;;;5032518;28;20083;-63
2023/07/20 12:26:25;;;;;;;0.73;0.50;;;19.90;1.40;;;;;;5031901;28;20432;-63
2023/07/20 12:28:51;;;;;;;1.40;0.70;;;20.20;4.80;;;;;;5032665;28;20045;-64
2023/07/20 12:31:17;;;;;;;2.42;0.65;;;20.40;4.90;;;;;;5032736;28;20389;-63
2023/07/20 12:33:42;;;;;;;1.67;0.50;;;20.40;4.40;;;;;;5032457;28;20049;-63
2023/07/20 12:36:09;;;;;;;1.48;0.55;;;20.40;5.10;;;;;;5031393;28;20430;-63
2023/07/20 12:38:35;;;;;;;1.35;0.60;;;20.30;5.90;;;;;;5032690;28;20045;-63
2023/07/20 12:41:01;;;;;;;1.35;0.73;;;20.30;6.40;;;;;;5032632;28;20057;-63
2023/07/20 12:43:28;;;;;;;1.80;0.88;;;20.30;6.00;;;;;;5033865;28;20048;-63
2023/07/20 12:45:53;;;;;;;2.08;0.80;;;20.20;3.80;;;;;;5036485;28;20044;-63
2023/07/20 12:48:19;;;;;;;1.13;0.80;;;20.10;2.90;;;;;;5036333;28;20037;-63
2023/07/20 12:50:44;;;;;;;1.30;0.80;;;20.10;2.70;;;;;;5036355;28;20041;-63
2023/07/20 12:53:10;;;;;;;4.38;1.00;;;20.00;2.20;;;;;;5036361;28;20504;-63
2023/07/20 12:55:39;;;;;;;3.47;0.82;;;19.90;1.40;;;;;;5036228;28;20040;-63
2023/07/20 12:58:05;;;;;;;3.72;0.85;;;19.90;1.80;;;;;;5035992;28;20033;-63
2023/07/20 13:00:31;;;;;;;2.22;0.80;;;19.40;5.20;;;;;;5036247;28;20370;-63
2023/07/20 13:02:57;;;;;;;2.65;0.90;;;19.20;8.00;;;;;;5036159;28;20401;-63
2023/07/20 13:05:23;;;;;;;5.28;1.08;;;18.90;10.80;;;;;;5035712;28;20046;-63
2023/07/20 13:07:49;;;;;;;2.25;1.15;;;19.00;20.70;;;;;;5036009;28;20041;-63
2023/07/20 13:10:15;;;;;;;2.25;0.90;;;19.40;20.30;;;;;;5036043;28;20476;-63